Terminal Aerodrome Forecast
Issued by NWS Mt. Holly, NJ

Home | Current Version | Previous Version | Text Only | Print | Product List | Glossary On
Versions: 1 2 3 4 5 6 7 8 9 10 11 12 13 14 15 16 17 18 19 20 21
000
FTUS41 KPHI 251100
TAFRDG
TAF
KRDG 251136Z 2512/2612 31006KT P6SM SKC
     FM251700 28012G22KT P6SM FEW040
     FM252300 26008KT P6SM BKN040
     FM260300 30008KT P6SM BKN040=

USA.gov is the U.S. government's official web portal to all federal, state and local government web resources and services.